Aviation Digital Data Service (ADDS)

Output produced by METARs form (0634 UTC 27 March 2017)
found at http://www.aviationweather.gov/adds/metars/
 
TAF COR SCFA 270510Z 2706/2806 35003KT 9999 CAVOK TN15/2709Z TX23/2716Z 
     BECMG 2710/2712 06004KT SCT010 
     BECMG 2714/2716 23005KT CAVOK 
     BECMG 2718/2720 19015KT FEW023 
     BECMG 2801/2803 16005KT
       
TAF SCAR 270414Z 2706/2806 03003KT CAVOK TN19/2707Z TX25/2717Z 
     BECMG 2712/2714 23007KT 
     BECMG 2717/2719 19015KT 
     BECMG 2800/2802 23005KT 
     BECMG 2804/2806 31003KT
       
TAF SCBA 270418Z 2706/2806 32006KT 9999 SCT040 BKN100 TN05/2710Z TX19/2719Z 
     PROB40 
     TEMPO 2709/2712 VRB02KT 8000 -SHRA BKN030 BKN090 
     BECMG 2714/2716 12008KT BKN050 
     BECMG 2722/2800 SCT050
       
TAF SCCF 270414Z 2706/2806 12014KT CAVOK TN08/2709Z TX24/2719Z 
     BECMG 2714/2715 28015KT 
     BECMG 2718/2720 28025KT 
     BECMG 2800/2802 25015KT 
     BECMG 2804/2806 10014KT
       
TAF COR SCIE 270517Z 2706/2806 VRB03KT 4000 BR BKN005 TX19/2718Z TN11 /2710Z 
     TEMPO 2706/2712 36005KT 0800 FG BKN003 BKN010 BKN016 
     BECMG 2715/2717 24008KT CAVOK 
     BECMG 2800/2802 24004KT
       
TAF SCAT 270414Z 2706/2806 12003KT CAVOK TN12/2709Z TX23/2718Z ECMG 2710/2712 32005KT SCT020 21012KT
       
TAF SCDA 270414Z 2706/2806 15004KT CAVOK TN17/2708Z TX22/2717Z 
     BECMG 2712/2714 23008KT 
     BECMG 2717/2719 18018KT 
     BECMG 2802/2804 15008KT
       
TAF SCSE 270435Z 2706/2806 29004KT CAVOK TX22/2719Z TN14/2710Z 
     TEMPO 2708/2714 11005KT 4000 BR BKN010 BKN016 
     BECMG 2716/2718 29010KT 
     BECMG 2801/2803 29004KT 
     BECMG 2804/2806 BKN010
       
TAF SCTE 270417Z 2706/2806 03007KT 9999 SCT080 TN10/2710Z TX19/2719Z 
     PROB30 
     TEMPO 2709/2712 3000 BR NSC 
     BECMG 2714/2716 SCT040 
     TEMPO 2720/2802 CAVOK
       
TAF COR SCCI 270450Z 2706/2806 09005KT 9000 SCT007 OVC020 TN05/2709Z TX12/2718Z 
     TEMPO 2706/2712 VRB03KT 1500 BCFG BKN004 OVC010 
     BECMG 2712/2714 03005KT BKN023 
     BECMG 2716/2718 36005KT 9999 NSW SCT030 
     BECMG 2800/2802 VRB03KT 9000 BKN010 
     TEMPO 2800/2806 1000 BCFG OVC008
       
TAF SCEL 270435Z 2706/2806 16004KT CAVOK TX26/2719Z TN11/2710Z 
     TEMPO 2708/2715 VRB02KT 7000 SCT180 
     BECMG 2716/2718 18008KT 
     BECMG 2800/2802 16005KT